Weather at Minneapolis–Saint Paul International Airport / Wold–Chamberlain Field

Public forecast

Using degrees Fahrenheit for public forecast. Weather courtesy of forecast.io.

Current aviation weather report (METAR) for Minneapolis–Saint Paul International Airport / Wold–Chamberlain Field

Retrieved 2021/04/20 21:53 UTC (25 minutes ago):

KMSP 202153Z 01006KT 10SM BKN065 04/M11 A3009 RMK AO2 SLP198 T00441106

Aviation forecast (TAF) for Minneapolis–Saint Paul International Airport / Wold–Chamberlain Field

Retrieved 2021/04/20 18:21 UTC (4 hours ago):

TAF KEAU 201720Z 2018/2118 32007KT P6SM BKN070 TAF KMSP 201720Z 2018/2124 32008KT P6SM BKN060